createdAt,value
2023-02-11T00:00:48.407Z,38.93
2023-02-11T00:03:16.070Z,36.50
2023-02-11T00:05:43.594Z,34.87
2023-02-11T00:08:16.890Z,30.27
2023-02-11T00:10:46.483Z,29.43
2023-02-11T00:13:13.928Z,31.57
2023-02-11T00:15:41.466Z,30.10
2023-02-11T00:18:08.928Z,29.93
2023-02-11T00:20:36.362Z,32.03
2023-02-11T00:23:03.834Z,31.47
2023-02-11T00:25:31.304Z,32.63
2023-02-11T00:28:00.192Z,33.83
2023-02-11T00:30:27.746Z,29.73
2023-02-11T00:32:55.231Z,41.30
2023-02-11T00:35:30.509Z,40.13
2023-02-11T00:37:58.106Z,30.13
2023-02-11T00:40:25.700Z,38.83
2023-02-11T00:42:53.149Z,33.93
2023-02-11T00:45:21.994Z,32.77
2023-02-11T00:47:49.434Z,30.33
2023-02-11T00:50:16.864Z,29.03
2023-02-11T00:52:44.444Z,33.17
2023-02-11T00:55:11.895Z,32.67
2023-02-11T00:57:39.392Z,31.07
2023-02-11T01:00:08.755Z,56.00
2023-02-11T01:02:37.501Z,30.17
2023-02-11T01:05:05.297Z,28.47
2023-02-11T01:07:33.084Z,38.43
2023-02-11T01:10:00.522Z,38.43
2023-02-11T01:12:28.016Z,35.67
2023-02-11T01:14:55.493Z,29.33
2023-02-11T01:17:22.956Z,38.67
2023-02-11T01:19:51.766Z,34.30
2023-02-11T01:22:19.233Z,34.00
2023-02-11T01:24:46.661Z,39.70
2023-02-11T01:27:14.154Z,34.97
2023-02-11T01:29:41.716Z,37.87
2023-02-11T01:32:09.270Z,55.83
2023-02-11T01:34:36.751Z,29.80
2023-02-11T01:37:05.527Z,27.97
2023-02-11T01:39:34.895Z,29.13
2023-02-11T01:42:02.830Z,31.03
2023-02-11T01:44:33.109Z,31.27
2023-02-11T01:47:00.727Z,32.77
2023-02-11T01:49:31.089Z,32.43
2023-02-11T01:52:04.547Z,28.93
2023-02-11T01:54:55.073Z,26.93
2023-02-11T01:57:25.631Z,32.33
2023-02-11T02:00:02.141Z,27.97
2023-02-11T02:02:35.368Z,29.33
2023-02-11T02:05:09.278Z,29.80
2023-02-11T02:07:42.305Z,29.30
2023-02-11T02:10:22.379Z,30.77
2023-02-11T02:12:50.102Z,35.73
2023-02-11T02:15:27.432Z,29.77
2023-02-11T02:18:07.644Z,29.70
2023-02-11T02:21:10.010Z,34.13
2023-02-11T02:23:55.129Z,32.50
2023-02-11T02:26:53.891Z,31.63
2023-02-11T02:29:52.555Z,36.77
2023-02-11T02:32:50.641Z,26.70
2023-02-11T02:35:29.508Z,30.97
2023-02-11T02:38:02.700Z,30.97
2023-02-11T02:40:33.210Z,34.53
2023-02-11T02:43:02.593Z,34.97
2023-02-11T02:45:30.224Z,32.23
2023-02-11T02:47:59.066Z,63.10
2023-02-11T02:50:31.960Z,38.90
2023-02-11T02:53:12.754Z,34.93
2023-02-11T02:55:53.527Z,31.53
2023-02-11T02:58:49.339Z,31.60
2023-02-11T03:01:27.572Z,32.23
2023-02-11T03:04:04.478Z,35.20
2023-02-11T03:06:37.965Z,32.70
2023-02-11T03:09:11.453Z,36.93
2023-02-11T03:11:40.676Z,33.10
2023-02-11T03:14:14.262Z,38.10
2023-02-11T03:16:44.368Z,37.90
2023-02-11T03:19:16.785Z,32.63
2023-02-11T03:21:45.590Z,34.20
2023-02-11T03:24:19.626Z,32.70
2023-02-11T03:26:51.021Z,34.00
2023-02-11T03:29:31.799Z,31.87
2023-02-11T03:32:05.462Z,35.60
2023-02-11T03:34:41.891Z,34.67
2023-02-11T03:37:13.973Z,37.70
2023-02-11T03:39:46.023Z,48.13
2023-02-11T03:42:15.653Z,35.33
2023-02-11T03:44:48.611Z,42.17
2023-02-11T03:47:20.889Z,34.93
2023-02-11T03:49:50.654Z,32.70
2023-02-11T03:52:20.903Z,37.33
2023-02-11T03:54:52.399Z,36.67
2023-02-11T03:57:20.075Z,34.03
2023-02-11T03:59:52.550Z,34.83
2023-02-11T04:02:21.281Z,32.73
2023-02-11T04:04:49.996Z,38.73
2023-02-11T04:07:17.453Z,35.77
2023-02-11T04:09:44.908Z,34.33
2023-02-11T04:12:12.426Z,34.73
2023-02-11T04:14:40.159Z,35.83
2023-02-11T04:17:07.586Z,36.27
2023-02-11T04:19:35.036Z,35.43
2023-02-11T04:22:03.913Z,34.57
2023-02-11T04:24:31.809Z,35.37
2023-02-11T04:26:59.442Z,35.07
2023-02-11T04:29:28.141Z,33.80
2023-02-11T04:31:56.213Z,35.73
2023-02-11T04:34:24.457Z,37.33
2023-02-11T04:36:52.676Z,34.83
2023-02-11T04:39:21.520Z,36.60
2023-02-11T04:41:48.938Z,40.43
2023-02-11T04:44:16.435Z,35.50
2023-02-11T04:46:43.870Z,39.73
2023-02-11T04:49:13.707Z,37.40
2023-02-11T04:51:41.316Z,43.83
2023-02-11T04:54:09.053Z,38.40
2023-02-11T04:56:38.165Z,38.77
2023-02-11T04:59:06.235Z,39.53
2023-02-11T05:01:33.905Z,36.70
2023-02-11T05:04:01.582Z,39.23
2023-02-11T05:06:29.132Z,38.10
2023-02-11T05:08:56.605Z,37.63
2023-02-11T05:11:25.607Z,40.07
2023-02-11T05:13:54.547Z,40.90
2023-02-11T05:16:21.985Z,39.80
2023-02-11T05:18:52.437Z,40.00
2023-02-11T05:21:20.535Z,40.87
2023-02-11T05:23:48.364Z,40.20
2023-02-11T05:26:16.365Z,38.10
2023-02-11T05:28:44.599Z,37.23
2023-02-11T05:31:14.591Z,43.87
2023-02-11T05:33:42.807Z,39.07
2023-02-11T05:36:12.665Z,43.10
2023-02-11T05:38:40.703Z,41.00
2023-02-11T05:41:08.124Z,39.03
2023-02-11T05:43:36.642Z,41.90
2023-02-11T05:46:05.098Z,41.33
2023-02-11T05:48:34.420Z,41.43
2023-02-11T05:51:01.858Z,44.57
2023-02-11T05:53:29.323Z,40.13
2023-02-11T05:55:57.412Z,41.87
2023-02-11T05:58:24.861Z,42.83
2023-02-11T06:00:52.305Z,41.87
2023-02-11T06:03:19.808Z,44.00
2023-02-11T06:05:48.777Z,43.83
2023-02-11T06:08:16.480Z,44.43
2023-02-11T06:10:46.186Z,44.90
2023-02-11T06:13:13.953Z,43.17
2023-02-11T06:15:41.460Z,43.43
2023-02-11T06:18:09.616Z,45.77
2023-02-11T06:20:37.238Z,44.43
2023-02-11T06:23:05.969Z,46.43
2023-02-11T06:25:33.505Z,43.87
2023-02-11T06:28:00.903Z,48.10
2023-02-11T06:30:28.339Z,46.20
2023-02-11T06:32:55.799Z,45.20
2023-02-11T06:35:23.232Z,45.30
2023-02-11T06:37:50.825Z,45.00
2023-02-11T06:40:19.901Z,43.97
2023-02-11T06:42:47.294Z,45.60
2023-02-11T06:45:14.712Z,46.23
2023-02-11T06:47:42.548Z,45.93
2023-02-11T06:50:13.091Z,49.20
2023-02-11T06:52:40.625Z,47.00
2023-02-11T06:55:08.276Z,48.20
2023-02-11T06:57:37.142Z,47.53
2023-02-11T07:00:05.877Z,44.90
2023-02-11T07:02:33.469Z,43.83
2023-02-11T07:05:00.948Z,47.63
2023-02-11T07:07:28.615Z,45.87
2023-02-11T07:09:56.105Z,47.97
2023-02-11T07:12:23.555Z,45.47
2023-02-11T07:14:52.949Z,45.67
2023-02-11T07:17:20.385Z,39.30
2023-02-11T07:19:47.813Z,45.77
2023-02-11T07:22:15.287Z,48.43
2023-02-11T07:24:42.901Z,47.47
2023-02-11T07:27:10.371Z,48.97
2023-02-11T07:29:37.789Z,45.40
2023-02-11T07:32:06.861Z,45.53
2023-02-11T07:34:34.427Z,47.90
2023-02-11T07:37:01.944Z,45.97
2023-02-11T07:39:29.480Z,46.23
2023-02-11T07:41:57.366Z,44.30
2023-02-11T07:44:24.910Z,44.77
2023-02-11T07:46:52.439Z,47.00
2023-02-11T07:49:21.334Z,42.17
2023-02-11T07:51:49.233Z,46.07
2023-02-11T07:54:16.643Z,47.50
2023-02-11T07:56:44.210Z,42.67
2023-02-11T07:59:12.594Z,46.40
2023-02-11T08:01:40.145Z,47.33
2023-02-11T08:04:07.627Z,46.20
2023-02-11T08:06:36.675Z,44.67
2023-02-11T08:09:05.774Z,45.63
2023-02-11T08:11:33.954Z,41.83
2023-02-11T08:14:01.568Z,44.80
2023-02-11T08:16:31.604Z,41.40
2023-02-11T08:19:00.558Z,45.67
2023-02-11T08:21:28.751Z,43.77
2023-02-11T08:23:58.079Z,46.13
2023-02-11T08:26:27.444Z,42.90
2023-02-11T08:28:56.415Z,42.80
2023-02-11T08:31:26.170Z,46.23
2023-02-11T08:33:54.829Z,48.43
2023-02-11T08:36:24.960Z,52.77
2023-02-11T08:39:05.678Z,42.93
2023-02-11T08:41:41.168Z,44.80
2023-02-11T08:44:08.712Z,46.53
2023-02-11T08:46:36.214Z,44.33
2023-02-11T08:49:04.876Z,45.40
2023-02-11T08:51:32.717Z,46.90
2023-02-11T08:54:01.037Z,46.37
2023-02-11T08:56:30.796Z,44.20
2023-02-11T08:58:59.673Z,44.70
2023-02-11T09:01:29.672Z,43.53
2023-02-11T09:03:57.720Z,38.60
2023-02-11T09:06:26.462Z,45.03
2023-02-11T09:08:55.712Z,44.33
2023-02-11T09:11:27.234Z,41.57
2023-02-11T09:13:54.897Z,44.87
2023-02-11T09:16:26.026Z,44.00
2023-02-11T09:18:54.292Z,42.33
2023-02-11T09:21:21.774Z,40.87
2023-02-11T09:23:51.160Z,43.43
2023-02-11T09:26:20.370Z,39.93
2023-02-11T09:28:48.419Z,42.90
2023-02-11T09:31:19.237Z,37.07
2023-02-11T09:33:49.815Z,36.63
2023-02-11T09:36:19.633Z,40.60
2023-02-11T09:38:48.705Z,41.20
2023-02-11T09:41:28.690Z,40.37
2023-02-11T09:43:58.380Z,40.83
2023-02-11T09:46:28.755Z,39.77
2023-02-11T09:48:57.998Z,39.83
2023-02-11T09:51:34.375Z,40.33
2023-02-11T09:54:06.647Z,40.40
2023-02-11T09:56:34.414Z,38.17
2023-02-11T09:59:01.930Z,39.47
2023-02-11T10:01:38.904Z,40.63
2023-02-11T10:04:15.540Z,46.90
2023-02-11T10:06:46.299Z,37.70
2023-02-11T10:09:26.758Z,40.63
2023-02-11T10:12:04.617Z,38.70
2023-02-11T10:14:55.468Z,37.80
2023-02-11T10:17:33.645Z,41.03
2023-02-11T10:20:17.175Z,37.27
2023-02-11T10:22:50.239Z,38.33
2023-02-11T10:25:23.324Z,38.47
2023-02-11T10:27:52.131Z,39.37
2023-02-11T10:30:29.485Z,39.80
2023-02-11T10:33:03.997Z,39.20
2023-02-11T10:35:33.407Z,41.80
2023-02-11T10:38:01.575Z,38.33
2023-02-11T10:40:31.310Z,38.97
2023-02-11T10:43:03.737Z,38.40
2023-02-11T10:45:34.607Z,25.17
2023-02-11T10:48:02.662Z,26.87
2023-02-11T10:50:33.428Z,23.53
2023-02-11T10:53:17.216Z,20.90
2023-02-11T10:55:52.145Z,21.17
2023-02-11T10:58:28.992Z,30.90
2023-02-11T11:00:58.053Z,22.10
2023-02-11T11:03:28.345Z,22.13
2023-02-11T11:05:59.719Z,18.53
2023-02-11T11:08:42.594Z,23.60
2023-02-11T11:11:12.068Z,24.53
2023-02-11T11:13:41.696Z,21.37
2023-02-11T11:16:21.685Z,21.37
2023-02-11T11:18:50.622Z,20.47
2023-02-11T11:21:22.260Z,21.37
2023-02-11T11:23:57.284Z,28.57
2023-02-11T11:26:27.658Z,27.67
2023-02-11T11:28:59.839Z,30.37
2023-02-11T11:31:31.377Z,29.60
2023-02-11T11:34:01.467Z,30.00
2023-02-11T11:36:36.153Z,33.77
2023-02-11T11:39:19.700Z,32.27
2023-02-11T11:41:52.352Z,33.00
2023-02-11T11:44:26.380Z,29.80
2023-02-11T11:47:14.633Z,34.30
2023-02-11T11:49:48.471Z,33.07
2023-02-11T11:52:26.532Z,31.47
2023-02-11T11:55:03.942Z,32.23
2023-02-11T11:57:35.120Z,31.53
2023-02-11T12:00:02.694Z,45.20
2023-02-11T12:02:51.981Z,30.17
2023-02-11T12:05:27.115Z,30.27
2023-02-11T12:08:04.786Z,28.67
2023-02-11T12:10:55.920Z,27.80
2023-02-11T12:13:35.078Z,29.57
2023-02-11T12:16:10.524Z,28.83
2023-02-11T12:19:00.289Z,26.03
2023-02-11T12:21:42.757Z,26.57
2023-02-11T12:24:36.015Z,24.80
2023-02-11T12:27:09.587Z,24.47
2023-02-11T12:29:53.309Z,25.33
2023-02-11T12:32:31.983Z,23.90
2023-02-11T12:35:23.793Z,25.23
2023-02-11T12:38:10.400Z,24.77
2023-02-11T12:40:44.947Z,24.13
2023-02-11T12:43:21.431Z,23.27
2023-02-11T12:46:09.146Z,24.17
2023-02-11T12:49:04.185Z,23.13
2023-02-11T12:51:45.195Z,21.30
2023-02-11T12:54:22.578Z,22.53
2023-02-11T12:56:54.479Z,21.93
2023-02-11T12:59:35.744Z,23.27
2023-02-11T13:02:13.557Z,23.93
2023-02-11T13:04:48.009Z,20.90
2023-02-11T13:07:20.314Z,21.83
2023-02-11T13:09:54.516Z,21.60
2023-02-11T13:12:40.438Z,23.10
2023-02-11T13:15:15.352Z,22.80
2023-02-11T13:17:51.027Z,22.70
2023-02-11T13:20:28.073Z,22.43
2023-02-11T13:23:02.811Z,21.83
2023-02-11T13:25:37.222Z,23.80
2023-02-11T13:28:21.310Z,21.93
2023-02-11T13:30:57.648Z,22.30
2023-02-11T13:33:33.905Z,22.20
2023-02-11T13:36:21.921Z,20.73
2023-02-11T13:39:10.909Z,22.27
2023-02-11T13:41:41.398Z,20.63
2023-02-11T13:44:34.561Z,22.67
2023-02-11T13:47:05.924Z,21.63
2023-02-11T13:49:40.391Z,21.27
2023-02-11T13:52:22.678Z,21.70
2023-02-11T13:54:52.747Z,21.43
2023-02-11T13:57:33.536Z,20.10
2023-02-11T14:00:03.279Z,21.30
2023-02-11T14:02:52.139Z,20.40
2023-02-11T14:05:47.229Z,20.00
2023-02-11T14:08:41.180Z,21.17
2023-02-11T14:11:25.248Z,21.17
2023-02-11T14:14:18.361Z,20.13
2023-02-11T14:17:22.407Z,19.80
2023-02-11T14:19:51.826Z,20.23
2023-02-11T14:22:25.863Z,20.03
2023-02-11T14:24:56.520Z,20.80
2023-02-11T14:27:29.121Z,19.40
2023-02-11T14:30:11.730Z,19.97
2023-02-11T14:32:49.975Z,17.43
2023-02-11T14:35:25.722Z,19.40
2023-02-11T14:38:03.215Z,19.33
2023-02-11T14:40:34.959Z,17.10
2023-02-11T14:43:12.688Z,17.70
2023-02-11T14:45:41.232Z,18.97
2023-02-11T14:48:15.811Z,20.07
2023-02-11T14:50:48.782Z,17.90
2023-02-11T14:53:19.272Z,17.53
2023-02-11T14:55:48.655Z,16.30
2023-02-11T14:58:18.215Z,17.57
2023-02-11T15:00:51.153Z,17.43
2023-02-11T15:03:36.690Z,15.63
2023-02-11T15:06:08.764Z,17.20
2023-02-11T15:08:39.131Z,16.83
2023-02-11T15:11:12.970Z,17.23
2023-02-11T15:13:47.329Z,17.50
2023-02-11T15:16:18.494Z,16.93
2023-02-11T15:18:48.951Z,15.67
2023-02-11T15:21:23.434Z,16.73
2023-02-11T15:23:58.589Z,15.77
2023-02-11T15:26:26.131Z,17.27
2023-02-11T15:28:53.657Z,16.17
2023-02-11T15:31:24.146Z,16.60
2023-02-11T15:33:52.800Z,16.27
2023-02-11T15:36:28.385Z,16.00
2023-02-11T15:39:18.509Z,16.20
2023-02-11T15:41:46.260Z,16.27
2023-02-11T15:44:29.593Z,16.77
2023-02-11T15:46:57.217Z,17.23
2023-02-11T15:49:25.369Z,16.37
2023-02-11T15:51:56.885Z,14.70
2023-02-11T15:54:27.316Z,14.90
2023-02-11T15:56:59.825Z,15.87
2023-02-11T15:59:31.495Z,15.93
2023-02-11T16:02:06.535Z,15.10
2023-02-11T16:04:34.190Z,14.20
2023-02-11T16:07:03.169Z,15.20
2023-02-11T16:09:35.453Z,14.00
2023-02-11T16:12:07.418Z,15.07
2023-02-11T16:14:39.132Z,13.97
2023-02-11T16:17:10.099Z,16.33
2023-02-11T16:19:43.551Z,15.77
2023-02-11T16:22:16.739Z,15.60
2023-02-11T16:24:48.536Z,13.67
2023-02-11T16:27:22.926Z,14.27
2023-02-11T16:29:51.973Z,15.60
2023-02-11T16:32:21.486Z,12.53
2023-02-11T16:34:49.428Z,14.37
2023-02-11T16:37:18.212Z,12.90
2023-02-11T16:39:46.601Z,12.37
2023-02-11T16:42:14.291Z,11.83
2023-02-11T16:44:41.822Z,12.07
2023-02-11T16:47:20.409Z,11.40
2023-02-11T16:49:47.893Z,12.43
2023-02-11T16:52:18.709Z,12.27
2023-02-11T16:54:46.207Z,12.03
2023-02-11T16:57:16.200Z,12.43
2023-02-11T16:59:44.026Z,11.87
2023-02-11T17:02:16.579Z,12.33
2023-02-11T17:04:44.963Z,13.20
2023-02-11T17:07:12.494Z,14.07
2023-02-11T17:09:41.391Z,14.47
2023-02-11T17:12:08.836Z,13.73
2023-02-11T17:14:36.271Z,14.10
2023-02-11T17:17:03.976Z,13.80
2023-02-11T17:19:31.708Z,14.00
2023-02-11T17:21:59.161Z,13.87
2023-02-11T17:24:26.560Z,13.63
2023-02-11T17:26:55.728Z,12.43
2023-02-11T17:29:25.294Z,12.80
2023-02-11T17:31:53.901Z,12.27
2023-02-11T17:34:22.465Z,12.37
2023-02-11T17:36:50.031Z,12.00
2023-02-11T17:39:17.490Z,12.43
2023-02-11T17:41:44.911Z,11.63
2023-02-11T17:44:14.098Z,12.27
2023-02-11T17:46:41.541Z,10.57
2023-02-11T17:49:09.033Z,11.13
2023-02-11T17:51:38.463Z,11.30
2023-02-11T17:54:08.125Z,11.90
2023-02-11T17:56:37.361Z,12.30
2023-02-11T17:59:06.544Z,12.37
2023-02-11T18:01:36.664Z,9.83
2023-02-11T18:04:05.648Z,11.07
2023-02-11T18:06:33.749Z,10.33
2023-02-11T18:09:04.156Z,10.10
2023-02-11T18:11:32.732Z,10.23
2023-02-11T18:14:01.067Z,9.87
2023-02-11T18:16:29.921Z,11.07
2023-02-11T18:18:59.743Z,10.00
2023-02-11T18:21:27.683Z,10.03
2023-02-11T18:23:56.932Z,10.23
2023-02-11T18:26:28.034Z,10.50
2023-02-11T18:28:57.525Z,11.50
2023-02-11T18:31:26.365Z,9.77
2023-02-11T18:33:54.762Z,11.43
2023-02-11T18:36:24.108Z,9.53
2023-02-11T18:38:53.601Z,10.60
2023-02-11T18:41:21.513Z,10.03
2023-02-11T18:43:48.968Z,10.30
2023-02-11T18:46:17.240Z,10.37
2023-02-11T18:48:45.748Z,9.53
2023-02-11T18:51:15.827Z,11.27
2023-02-11T18:53:44.730Z,9.23
2023-02-11T18:56:14.114Z,9.60
2023-02-11T18:58:41.610Z,9.80
2023-02-11T19:01:15.117Z,10.00
2023-02-11T19:03:43.101Z,9.27
2023-02-11T19:06:16.648Z,8.97
2023-02-11T19:08:45.436Z,9.07
2023-02-11T19:11:14.539Z,9.57
2023-02-11T19:13:42.084Z,9.50
2023-02-11T19:16:11.448Z,9.63
2023-02-11T19:18:39.840Z,9.90
2023-02-11T19:21:08.704Z,10.37
2023-02-11T19:23:37.877Z,9.97
2023-02-11T19:26:06.713Z,9.90
2023-02-11T19:28:35.267Z,10.13
2023-02-11T19:31:07.180Z,10.77
2023-02-11T19:33:34.768Z,11.07
2023-02-11T19:36:07.121Z,10.87
2023-02-11T19:38:35.226Z,10.97
2023-02-11T19:41:02.876Z,9.20
2023-02-11T19:43:31.721Z,10.13
2023-02-11T19:45:59.160Z,10.13
2023-02-11T19:48:26.770Z,10.90
2023-02-11T19:50:54.584Z,11.33
2023-02-11T19:53:22.254Z,10.07
2023-02-11T19:55:50.433Z,10.37
2023-02-11T19:58:18.558Z,10.63
2023-02-11T20:00:47.334Z,10.60
2023-02-11T20:03:14.722Z,11.03
2023-02-11T20:05:46.976Z,9.27
2023-02-11T20:08:14.493Z,11.10
2023-02-11T20:10:41.913Z,10.97
2023-02-11T20:13:09.328Z,10.80
2023-02-11T20:15:37.141Z,10.17
2023-02-11T20:18:06.126Z,10.63
2023-02-11T20:20:33.675Z,10.60
2023-02-11T20:23:01.115Z,10.53
2023-02-11T20:25:28.531Z,12.10
2023-02-11T20:27:56.263Z,11.37
2023-02-11T20:30:23.735Z,10.37
2023-02-11T20:32:51.305Z,10.70
2023-02-11T20:35:20.213Z,10.90
2023-02-11T20:37:47.622Z,10.30
2023-02-11T20:40:15.040Z,9.93
2023-02-11T20:42:42.465Z,10.33
2023-02-11T20:45:10.326Z,9.80
2023-02-11T20:47:38.258Z,9.20
2023-02-11T20:50:06.709Z,9.63
2023-02-11T20:52:36.341Z,8.80
2023-02-11T20:55:03.794Z,8.83
2023-02-11T20:57:31.190Z,9.37
2023-02-11T20:59:58.718Z,9.00
2023-02-11T21:02:26.161Z,8.90
2023-02-11T21:04:53.584Z,8.67
2023-02-11T21:07:21.007Z,8.10
2023-02-11T21:09:49.819Z,8.63
2023-02-11T21:12:17.359Z,8.10
2023-02-11T21:14:45.010Z,8.57
2023-02-11T21:17:12.998Z,8.80
2023-02-11T21:19:41.359Z,8.80
2023-02-11T21:22:08.825Z,9.27
2023-02-11T21:24:36.244Z,8.00
2023-02-11T21:27:05.028Z,8.43
2023-02-11T21:29:35.162Z,8.40
2023-02-11T21:32:04.224Z,9.97
2023-02-11T21:34:31.636Z,8.90
2023-02-11T21:36:59.097Z,8.10
2023-02-11T21:39:26.832Z,8.43
2023-02-11T21:41:55.902Z,8.23
2023-02-11T21:44:24.727Z,8.67
2023-02-11T21:46:52.466Z,8.90
2023-02-11T21:49:20.173Z,8.87
2023-02-11T21:51:47.568Z,8.00
2023-02-11T21:54:15.088Z,8.17
2023-02-11T21:56:42.553Z,9.23
2023-02-11T21:59:13.305Z,8.80
2023-02-11T22:01:42.177Z,8.40
2023-02-11T22:04:10.759Z,9.10
2023-02-11T22:06:38.590Z,3.90
2023-02-11T22:09:07.631Z,3.47
2023-02-11T22:11:35.705Z,4.17
2023-02-11T22:14:03.186Z,3.83
2023-02-11T22:16:31.029Z,3.80
2023-02-11T22:19:02.242Z,5.30
2023-02-11T22:21:29.728Z,4.47
2023-02-11T22:23:57.684Z,4.80
2023-02-11T22:26:26.609Z,3.80
2023-02-11T22:28:54.884Z,5.27
2023-02-11T22:31:24.994Z,5.17
2023-02-11T22:33:53.056Z,4.97
2023-02-11T22:36:24.825Z,3.90
2023-02-11T22:38:52.719Z,4.53
2023-02-11T22:41:21.295Z,4.63
2023-02-11T22:43:49.309Z,4.87
2023-02-11T22:46:19.278Z,4.47
2023-02-11T22:48:47.292Z,4.60
2023-02-11T22:51:16.650Z,7.40
2023-02-11T22:53:49.956Z,7.67
2023-02-11T22:56:17.468Z,7.87
2023-02-11T22:58:45.322Z,12.13
2023-02-11T23:01:14.010Z,9.43
2023-02-11T23:03:41.685Z,10.47
2023-02-11T23:06:10.007Z,10.37
2023-02-11T23:08:39.607Z,10.20
2023-02-11T23:11:10.791Z,9.57
2023-02-11T23:13:40.543Z,9.97
2023-02-11T23:16:10.518Z,9.87
2023-02-11T23:18:39.744Z,8.80
2023-02-11T23:21:12.379Z,9.43
2023-02-11T23:23:40.284Z,9.97
2023-02-11T23:26:12.442Z,10.00
2023-02-11T23:28:40.297Z,10.37
2023-02-11T23:31:16.528Z,9.60
2023-02-11T23:33:44.523Z,9.73
2023-02-11T23:36:12.477Z,10.00
2023-02-11T23:38:40.287Z,9.57
2023-02-11T23:41:07.998Z,10.23
2023-02-11T23:43:36.788Z,10.43
2023-02-11T23:46:04.424Z,10.47
2023-02-11T23:48:31.960Z,10.33
2023-02-11T23:50:59.438Z,9.80
2023-02-11T23:53:26.980Z,9.60
2023-02-11T23:55:54.807Z,12.13
2023-02-11T23:58:22.384Z,12.20
